Time;durP1;ratioP1;P1;durP2;ratioP2;P2;SDS_P1;SDS_P2;PMS_P1;PMS_P2;Temp;Humidity;BMP_temperature;BMP_pressure;BME280_temperature;BME280_humidity;BME280_pressure;Samples;Min_cycle;Max_cycle;Signal;HPM_P1;HPM_P2
2021/11/09 05:10:52;;;;;;;;;25.80;24.40;;;;;13.76;54.34;99671.78;6199231;28;98064;-67
2021/11/09 05:13:55;;;;;;;;;30.20;25.00;;;;;13.72;54.64;99679.53;6207393;28;97179;-68
2021/11/09 05:17:00;;;;;;;;;27.60;23.60;;;;;13.74;54.60;99677.41;6193277;28;96752;-68
2021/11/09 05:20:06;;;;;;;;;28.00;26.00;;;;;13.84;54.60;99690.47;6190322;28;98444;-67
2021/11/09 05:23:09;;;;;;;;;30.00;25.50;;;;;13.95;54.32;99688.91;6191939;28;97398;-68
2021/11/09 05:26:12;;;;;;;;;33.00;26.00;;;;;13.88;54.43;99702.50;6210833;28;97385;-69
2021/11/09 05:29:16;;;;;;;;;26.80;23.80;;;;;13.78;54.38;99700.31;6210469;28;96393;-69
2021/11/09 05:32:19;;;;;;;;;31.80;26.60;;;;;13.71;54.70;99702.25;6210499;28;97542;-67
2021/11/09 05:35:24;;;;;;;;;26.00;23.00;;;;;13.81;54.61;99713.44;6200923;28;97494;-67
2021/11/09 05:38:30;;;;;;;;;27.20;22.80;;;;;13.76;54.70;99701.59;6190974;28;97807;-69
2021/11/09 05:41:36;;;;;;;;;30.00;24.40;;;;;13.83;54.56;99724.03;6197192;28;97768;-68
2021/11/09 05:44:40;;;;;;;;;28.60;24.20;;;;;13.82;54.49;99723.22;6203220;28;96916;-69
2021/11/09 05:47:43;;;;;;;;;29.00;24.00;;;;;13.87;54.55;99736.13;6209473;28;98051;-69
2021/11/09 05:50:50;;;;;;;;;30.00;24.00;;;;;13.81;54.52;99740.53;6202942;28;96998;-70
2021/11/09 05:53:54;;;;;;;;;24.00;23.00;;;;;13.81;54.42;99751.38;6188038;28;98035;-69
2021/11/09 05:56:57;;;;;;;;;28.00;21.00;;;;;13.82;54.40;99758.47;6209643;28;96726;-68
2021/11/09 06:00:02;;;;;;;;;26.00;22.60;;;;;13.86;54.47;99765.09;6210144;28;97024;-67
2021/11/09 06:03:14;;;;;;;;;23.75;22.00;;;;;13.87;54.27;99766.75;6208319;28;96634;-67
2021/11/09 06:06:19;;;;;;;;;27.00;22.00;;;;;13.94;54.13;99779.41;6173472;28;97961;-67
2021/11/09 06:09:23;;;;;;;;;26.80;22.00;;;;;13.99;54.27;99787.72;6173096;28;98512;-68
2021/11/09 06:12:26;;;;;;;;;27.40;25.00;;;;;13.98;54.25;99796.88;6165656;28;96752;-71
2021/11/09 06:15:29;;;;;;;;;25.50;22.50;;;;;13.85;54.38;99800.56;6204387;28;96735;-67
2021/11/09 06:18:33;;;;;;;;;25.00;22.60;;;;;13.77;54.39;99801.66;6203363;28;97905;-68
2021/11/09 06:21:37;;;;;;;;;27.40;25.00;;;;;13.83;54.55;99810.78;6191919;28;97501;-69
2021/11/09 06:24:41;;;;;;;;;24.60;21.00;;;;;13.74;54.63;99812.09;6193297;28;96782;-66
2021/11/09 06:27:46;;;;;;;;;23.00;22.00;;;;;13.73;54.66;99818.59;6203694;28;97621;-69
2021/11/09 06:30:53;;;;;;;;;29.00;25.00;;;;;13.80;54.60;99833.75;6193841;28;97941;-69
2021/11/09 06:33:56;;;;;;;;;26.00;24.60;;;;;13.79;54.65;99834.78;6211980;28;97450;-67
2021/11/09 06:37:01;;;;;;;;;29.80;25.60;;;;;13.86;54.54;99849.13;6191371;28;98161;-65
2021/11/09 06:40:06;;;;;;;;;27.00;24.00;;;;;13.92;54.37;99860.16;6194569;28;97654;-65
2021/11/09 06:43:10;;;;;;;;;25.00;24.60;;;;;13.98;54.08;99861.97;6213391;28;97206;-68
2021/11/09 06:46:14;;;;;;;;;29.00;23.60;;;;;14.05;54.28;99874.44;6214004;28;97273;-69
2021/11/09 06:49:17;;;;;;;;;28.80;24.20;;;;;14.08;53.99;99884.00;6176600;28;99933;-67
2021/11/09 06:52:22;;;;;;;;;32.00;27.00;;;;;14.10;53.78;99890.88;6182758;28;96843;-67
2021/11/09 06:55:25;;;;;;;;;28.00;25.20;;;;;14.09;53.73;99896.50;6196652;28;97275;-65
2021/11/09 06:58:29;;;;;;;;;27.00;25.00;;;;;14.05;53.73;99888.00;6195636;28;99837;-67
2021/11/09 07:01:33;;;;;;;;;27.00;24.60;;;;;14.15;53.67;99918.16;6213518;28;96660;-67
2021/11/09 07:04:36;;;;;;;;;29.40;25.20;;;;;14.24;53.70;99918.72;6215095;28;97438;-66
2021/11/09 07:07:44;;;;;;;;;29.50;27.00;;;;;14.24;53.42;99922.25;6196777;28;97493;-69
2021/11/09 07:10:48;;;;;;;;;27.00;23.00;;;;;14.31;53.22;99933.06;6181062;28;98335;-67
2021/11/09 07:13:52;;;;;;;;;27.00;25.00;;;;;14.29;53.31;99929.75;6214295;28;96646;-70
2021/11/09 07:16:55;;;;;;;;;27.60;25.40;;;;;14.30;53.03;99943.09;6213023;28;98080;-67
2021/11/09 07:19:59;;;;;;;;;30.00;25.60;;;;;14.32;53.04;99951.81;6194950;28;98969;-66
2021/11/09 07:23:05;;;;;;;;;26.00;24.50;;;;;14.31;53.01;99947.47;6213791;28;96596;-69
2021/11/09 07:26:09;;;;;;;;;30.50;27.25;;;;;14.24;53.15;99953.97;6212892;28;96656;-70
2021/11/09 07:29:12;;;;;;;;;29.00;26.00;;;;;14.24;53.05;99943.97;6177671;28;96729;-66
2021/11/09 07:32:16;;;;;;;;;31.00;27.33;;;;;14.28;53.01;99956.03;6213975;28;97558;-68
2021/11/09 07:35:19;;;;;;;;;29.25;24.00;;;;;14.26;53.17;99965.47;6195500;28;97028;-66
2021/11/09 07:38:24;;;;;;;;;29.40;25.00;;;;;14.27;53.21;99962.50;6193893;28;97064;-66
2021/11/09 07:41:27;;;;;;;;;26.00;23.25;;;;;14.22;53.13;99972.38;6212764;28;96464;-66
2021/11/09 07:44:31;;;;;;;;;25.00;24.00;;;;;14.12;53.27;99961.97;6213773;28;97627;-65
2021/11/09 07:47:34;;;;;;;;;29.40;25.00;;;;;14.18;53.05;99973.84;6212155;28;98060;-66
2021/11/09 07:50:37;;;;;;;;;28.60;26.60;;;;;14.24;53.08;99989.25;6208927;28;97563;-65
2021/11/09 07:53:43;;;;;;;;;29.60;26.60;;;;;14.26;52.93;99998.00;6204628;28;96442;-68
2021/11/09 07:56:47;;;;;;;;;29.20;26.00;;;;;14.30;52.94;99997.34;6196379;28;96993;-67
2021/11/09 07:59:53;;;;;;;;;31.00;27.00;;;;;14.41;52.68;100009.41;6195218;28;97757;-67
2021/11/09 08:03:05;;;;;;;;;30.50;26.25;;;;;14.28;52.61;100004.03;6212802;28;96727;-67
2021/11/09 08:06:16;;;;;;;;;28.50;26.00;;;;;14.30;52.58;100004.66;6199991;28;97724;-68
2021/11/09 08:09:25;;;;;;;;;29.00;26.00;;;;;14.26;52.88;100009.69;6179004;28;96733;-68
2021/11/09 08:12:28;;;;;;;;;31.00;27.00;;;;;14.23;52.78;100017.41;6195429;28;97344;-68
2021/11/09 08:15:32;;;;;;;;;33.00;25.00;;;;;14.12;53.05;100010.00;6213357;28;97765;-65
2021/11/09 08:18:36;;;;;;;;;31.67;26.67;;;;;14.14;53.12;100018.72;6185009;28;97238;-66
2021/11/09 08:21:39;;;;;;;;;28.00;26.00;;;;;14.17;53.47;100024.53;6207206;28;96635;-66
2021/11/09 08:24:44;;;;;;;;;26.20;24.20;;;;;14.15;53.21;100025.81;6212558;28;97578;-67
2021/11/09 08:27:48;;;;;;;;;30.40;26.40;;;;;14.23;53.32;100034.53;6176678;28;96753;-67
2021/11/09 08:30:54;;;;;;;;;26.40;24.40;;;;;14.25;53.01;100037.03;6174495;28;99797;-67
2021/11/09 08:33:57;;;;;;;;;28.00;24.00;;;;;14.29;52.98;100044.50;6212687;28;97031;-66
2021/11/09 08:37:00;;;;;;;;;25.20;24.00;;;;;14.19;52.99;100044.16;6189382;28;97428;-65
2021/11/09 08:40:12;;;;;;;;;26.00;24.00;;;;;14.24;52.40;100038.06;6211438;28;97272;-63
2021/11/09 08:43:18;;;;;;;;;26.00;24.00;;;;;14.28;52.72;100052.84;6211814;28;96845;-63
2021/11/09 08:46:24;;;;;;;;;28.50;24.00;;;;;14.45;52.29;100059.47;6198817;28;97684;-63
2021/11/09 08:49:29;;;;;;;;;27.20;24.80;;;;;14.44;52.69;100065.13;6211541;28;96689;-66
2021/11/09 08:52:34;;;;;;;;;25.20;24.00;;;;;14.54;52.13;100077.16;6193332;28;97931;-64
2021/11/09 08:56:09;;;;;;;;;31.00;27.25;;;;;14.61;52.32;100080.66;6192570;28;96945;-65
2021/11/09 09:06:08;;;;;;;;;30.20;25.80;;;;;14.88;51.53;100097.59;6119079;28;96961;-67
2021/11/09 09:09:14;;;;;;;;;25.00;24.00;;;;;14.96;51.19;100094.59;6109805;28;97446;-67
2021/11/09 09:12:19;;;;;;;;;27.00;24.00;;;;;15.00;51.06;100105.88;6110310;28;96757;-68
2021/11/09 09:15:22;;;;;;;;;26.80;24.60;;;;;15.05;51.06;100112.28;6095247;28;97723;-66
2021/11/09 09:18:26;;;;;;;;;26.00;22.60;;;;;15.13;50.78;100116.63;6097442;28;96899;-67
2021/11/09 09:21:34;;;;;;;;;24.75;21.75;;;;;15.20;50.49;100109.25;6097125;28;96667;-68
2021/11/09 09:28:27;;;;;;;;;26.00;21.40;;;;;15.32;49.98;100122.94;6086236;28;98046;-65
2021/11/09 09:52:18;;;;;;;;;21.20;20.80;;;;;15.42;49.44;100140.41;6099274;28;97346;-65
2021/11/09 09:55:33;;;;;;;;;24.75;22.00;;;;;15.58;49.40;100145.31;6109970;28;97517;-68
2021/11/09 09:58:37;;;;;;;;;23.00;19.00;;;;;15.63;49.00;100138.38;6110867;28;96988;-68
2021/11/09 10:01:44;;;;;;;;;19.00;18.00;;;;;15.66;48.94;100160.50;6101249;28;97061;-68
2021/11/09 10:04:50;;;;;;;;;25.00;22.00;;;;;15.67;48.97;100147.75;6095089;28;97950;-66
2021/11/09 10:07:58;;;;;;;;;24.00;21.00;;;;;15.75;48.85;100142.00;6113282;28;97475;-65
2021/11/09 10:11:01;;;;;;;;;21.00;18.60;;;;;15.83;48.60;100152.63;6128560;28;96855;-68
2021/11/09 10:14:05;;;;;;;;;20.40;17.40;;;;;15.93;48.39;100144.75;6193794;28;97334;-68
2021/11/09 10:17:12;;;;;;;;;24.75;20.50;;;;;15.94;48.25;100162.72;6191331;28;96486;-68
2021/11/09 10:20:18;;;;;;;;;19.50;18.00;;;;;15.94;48.04;100160.00;6187683;28;97226;-66
2021/11/09 10:23:23;;;;;;;;;24.60;20.60;;;;;15.85;48.27;100167.63;6182011;28;97486;-68
2021/11/09 10:26:27;;;;;;;;;25.67;21.67;;;;;15.87;48.42;100165.53;6189057;28;97280;-65
2021/11/09 10:29:41;;;;;;;;;21.00;20.00;;;;;15.96;48.36;100174.22;6191648;28;96681;-65
2021/11/09 10:32:46;;;;;;;;;23.00;19.00;;;;;16.00;47.80;100170.81;6173426;28;96743;-65
2021/11/09 10:35:50;;;;;;;;;16.40;16.00;;;;;15.94;47.71;100174.44;6189733;28;97295;-68
2021/11/09 10:38:54;;;;;;;;;17.60;15.40;;;;;15.79;47.68;100186.72;6190708;28;97422;-67
2021/11/09 10:42:11;;;;;;;;;18.50;16.00;;;;;15.87;47.56;100183.72;6187989;28;96803;-65
2021/11/09 10:45:16;;;;;;;;;20.00;16.00;;;;;15.90;47.34;100197.72;6188640;28;96754;-66
2021/11/09 10:48:23;;;;;;;;;17.40;16.60;;;;;15.88;47.45;100191.66;6183625;28;98086;-65
2021/11/09 10:51:54;;;;;;;;;19.80;17.20;;;;;15.92;47.56;100200.22;6171393;28;99788;-65
2021/11/09 10:55:04;;;;;;;;;19.60;18.00;;;;;15.99;47.28;100203.69;6175224;28;96656;-66
2021/11/09 11:04:51;;;;;;;;;19.80;17.00;;;;;15.81;47.71;100199.06;6193392;28;96653;-65
2021/11/09 11:07:56;;;;;;;;;19.00;17.00;;;;;15.80;47.73;100212.88;6210943;28;97582;-68
2021/11/09 11:11:14;;;;;;;;;21.00;19.00;;;;;15.71;47.92;100216.94;6194892;28;98429;-68
2021/11/09 11:14:21;;;;;;;;;18.00;16.00;;;;;15.66;47.93;100222.19;6202818;28;97720;-67
2021/11/09 11:17:24;;;;;;;;;18.00;16.00;;;;;15.62;48.07;100218.28;6215109;28;97458;-68
2021/11/09 11:20:29;;;;;;;;;18.00;17.00;;;;;15.58;48.45;100224.16;6194894;28;99778;-64
2021/11/09 11:23:33;;;;;;;;;22.40;19.00;;;;;15.46;48.50;100231.31;6213647;28;97073;-65
2021/11/09 11:26:38;;;;;;;;;23.60;19.40;;;;;15.43;48.59;100233.66;6203956;28;97547;-66
2021/11/09 11:29:43;;;;;;;;;20.40;19.60;;;;;15.37;48.65;100248.13;6195336;28;97204;-68
2021/11/09 11:32:46;;;;;;;;;19.80;18.80;;;;;15.37;48.65;100248.94;6193757;28;96673;-65
2021/11/09 11:35:52;;;;;;;;;20.40;18.00;;;;;15.45;48.65;100239.69;6206179;28;98709;-67
2021/11/09 11:39:00;;;;;;;;;21.00;18.40;;;;;15.44;48.67;100244.28;6213958;28;96649;-65
2021/11/09 11:42:08;;;;;;;;;20.40;18.00;;;;;15.44;48.75;100244.28;6208244;28;96637;-64
2021/11/09 11:45:11;;;;;;;;;20.60;18.60;;;;;15.44;48.71;100243.47;6213224;28;97636;-67
2021/11/09 11:48:15;;;;;;;;;21.00;18.80;;;;;15.51;48.58;100242.38;6211405;28;97469;-65
2021/11/09 11:51:19;;;;;;;;;21.20;17.00;;;;;15.53;48.77;100248.47;6206645;28;100089;-66
2021/11/09 11:54:40;;;;;;;;;19.60;18.60;;;;;15.53;48.75;100243.00;6197028;28;97232;-67
2021/11/09 11:57:54;;;;;;;;;20.00;18.67;;;;;15.52;48.50;100244.06;6208560;28;97478;-69
2021/11/09 12:00:59;;;;;;;;;21.25;18.00;;;;;15.56;48.49;100239.84;6206389;28;97422;-67
2021/11/09 12:04:03;;;;;;;;;22.40;18.00;;;;;15.49;48.59;100246.38;6185293;28;97192;-64
2021/11/09 12:07:10;;;;;;;;;21.40;19.40;;;;;15.48;48.60;100252.84;6138813;28;97185;-65
2021/11/09 12:10:13;;;;;;;;;21.40;20.40;;;;;15.42;48.71;100248.28;6153968;28;97584;-64
2021/11/09 12:13:18;;;;;;;;;20.40;18.00;;;;;15.44;48.71;100244.28;6155164;28;97386;-67
2021/11/09 12:16:41;;;;;;;;;19.00;17.00;;;;;15.42;48.52;100240.97;6137845;28;98221;-65
2021/11/09 12:19:51;;;;;;;;;19.00;16.00;;;;;15.44;48.75;100243.47;6158014;28;97497;-64
2021/11/09 12:22:56;;;;;;;;;20.00;16.60;;;;;15.44;48.43;100238.84;6153938;28;97491;-65
2021/11/09 12:25:59;;;;;;;;;17.40;15.80;;;;;15.49;48.02;100240.94;6160418;28;98217;-67
2021/11/09 12:29:03;;;;;;;;;17.60;16.60;;;;;15.51;47.73;100219.81;6161328;28;97541;-64
2021/11/09 12:32:36;;;;;;;;;21.00;17.00;;;;;16.39;46.37;100253.06;6158942;28;96879;-66
2021/11/09 12:35:40;;;;;;;;;16.00;14.60;;;;;17.09;44.88;100248.03;6153322;28;96844;-68
2021/11/09 12:38:47;;;;;;;;;21.00;18.00;;;;;17.83;43.29;100246.72;6146187;28;96522;-65
2021/11/09 12:41:54;;;;;;;;;18.00;16.00;;;;;18.42;41.87;100245.63;6157125;28;100143;-65
2021/11/09 12:44:58;;;;;;;;;16.60;15.00;;;;;18.87;40.81;100246.59;6159695;28;98277;-67
2021/11/09 12:48:02;;;;;;;;;20.00;16.00;;;;;18.99;40.54;100246.56;6160383;28;96701;-68
2021/11/09 12:51:09;;;;;;;;;21.00;18.40;;;;;19.00;39.89;100237.31;6162842;28;98133;-66
2021/11/09 12:54:15;;;;;;;;;22.20;19.00;;;;;19.40;39.49;100254.44;6154823;28;97171;-65
2021/11/09 12:57:25;;;;;;;;;19.40;17.40;;;;;19.77;38.44;100248.56;6159686;28;99507;-67
2021/11/09 13:00:38;;;;;;;;;22.40;18.40;;;;;19.95;38.14;100240.09;6157752;28;97514;-68
2021/11/09 13:03:56;;;;;;;;;21.60;18.60;;;;;20.20;37.75;100245.13;6163586;28;96747;-68
2021/11/09 13:07:13;;;;;;;;;20.00;18.00;;;;;20.16;37.21;100250.28;6207850;28;97213;-67
2021/11/09 13:10:20;;;;;;;;;17.00;14.50;;;;;20.46;36.24;100249.91;6209536;28;97285;-66
2021/11/09 13:13:24;;;;;;;;;22.75;18.00;;;;;20.64;35.98;100257.81;6171482;28;99628;-65
2021/11/09 13:16:34;;;;;;;;;19.67;16.67;;;;;20.88;36.05;100250.16;6201653;28;97369;-65
2021/11/09 13:19:40;;;;;;;;;23.00;19.00;;;;;20.97;35.53;100256.84;6208841;28;96990;-66
2021/11/09 13:22:51;;;;;;;;;21.00;17.00;;;;;20.92;35.46;100248.56;6210337;28;96968;-68
2021/11/09 13:25:59;;;;;;;;;21.00;17.00;;;;;20.95;35.79;100241.75;6192139;28;96756;-66
2021/11/09 13:29:08;;;;;;;;;16.00;15.00;;;;;21.08;35.53;100253.16;6209421;28;97524;-65
2021/11/09 13:32:11;;;;;;;;;16.80;14.20;;;;;20.98;35.39;100249.47;6215352;28;97458;-67
2021/11/09 13:35:23;;;;;;;;;19.67;16.00;;;;;20.75;35.57;100223.16;6197114;28;97453;-65
2021/11/09 13:38:29;;;;;;;;;14.75;13.75;;;;;20.94;35.23;100251.06;6198855;28;98580;-68
2021/11/09 13:41:33;;;;;;;;;20.25;15.50;;;;;20.75;35.99;100250.56;6214883;28;97802;-65
2021/11/09 13:44:39;;;;;;;;;17.75;15.50;;;;;20.62;35.95;100259.97;6216237;28;97227;-67
2021/11/09 13:47:43;;;;;;;;;17.00;14.00;;;;;20.58;35.91;100261.56;6212603;28;97411;-68
2021/11/09 13:50:51;;;;;;;;;18.60;13.60;;;;;20.36;36.20;100271.69;6213108;28;97538;-65
2021/11/09 13:53:58;;;;;;;;;18.60;15.60;;;;;20.01;36.90;100279.31;6206106;28;97255;-67
2021/11/09 13:57:04;;;;;;;;;15.40;15.00;;;;;19.65;37.48;100281.47;6197979;28;96831;-68
2021/11/09 14:00:24;;;;;;;;;17.00;16.00;;;;;19.31;38.23;100277.81;6174228;28;96720;-67
2021/11/09 14:03:35;;;;;;;;;18.50;15.00;;;;;19.01;38.79;100272.56;6192957;28;96704;-65
2021/11/09 14:13:54;;;;;;;;;15.60;13.60;;;;;18.37;40.07;100279.13;6194372;28;97374;-65
2021/11/09 14:16:58;;;;;;;;;16.60;15.00;;;;;18.19;40.24;100273.78;6201567;28;97606;-68
2021/11/09 14:20:10;;;;;;;;;17.00;16.00;;;;;18.01;40.81;100285.66;6191769;28;96976;-67
2021/11/09 14:23:13;;;;;;;;;17.00;15.00;;;;;17.85;41.06;100285.50;6179460;28;97303;-67
2021/11/09 14:26:19;;;;;;;;;15.00;15.00;;;;;17.72;41.24;100283.81;6210144;28;97544;-67
2021/11/09 14:29:25;;;;;;;;;15.40;14.40;;;;;17.60;41.54;100302.03;6198875;28;96481;-65
2021/11/09 14:32:32;;;;;;;;;15.00;14.00;;;;;17.47;41.83;100292.16;6193079;28;96817;-68
2021/11/09 14:35:36;;;;;;;;;14.00;14.00;;;;;17.41;42.00;100287.63;6175148;28;96961;-65
2021/11/09 14:38:41;;;;;;;;;18.00;15.00;;;;;17.31;42.47;100292.78;6212296;28;96696;-68
2021/11/09 14:42:01;;;;;;;;;19.00;17.00;;;;;17.21;42.65;100290.63;6189508;28;97254;-65
2021/11/09 14:45:11;;;;;;;;;16.00;14.00;;;;;17.14;42.50;100289.06;6210474;28;96682;-67
2021/11/09 14:48:18;;;;;;;;;17.40;15.00;;;;;17.08;42.60;100292.69;6192130;28;97360;-65
2021/11/09 14:51:28;;;;;;;;;17.40;15.80;;;;;16.98;42.40;100293.25;6212260;28;96887;-67
2021/11/09 14:54:35;;;;;;;;;15.80;12.80;;;;;16.88;42.62;100293.78;6209402;28;96706;-65
2021/11/09 14:57:41;;;;;;;;;16.40;13.40;;;;;16.83;42.74;100295.53;6195801;28;97364;-65
2021/11/09 15:00:46;;;;;;;;;12.40;12.00;;;;;16.76;42.57;100298.31;6194726;28;97022;-67
2021/11/09 15:03:58;;;;;;;;;13.00;11.00;;;;;16.65;42.97;100290.09;6210061;28;97497;-65
2021/11/09 15:07:10;;;;;;;;;13.50;12.00;;;;;16.59;42.65;100301.91;6191812;28;97227;-67
2021/11/09 15:10:30;;;;;;;;;14.20;13.80;;;;;16.46;43.13;100302.84;6193483;28;98149;-65
2021/11/09 15:24:55;;;;;;;;;13.20;11.20;;;;;16.34;43.27;100313.63;6210686;28;97179;-65
2021/11/09 15:27:27;;;;;;;;;15.00;13.00;;;;;15.99;44.63;100310.59;6207087;28;97545;-66
2021/11/09 15:30:39;;;;;;;;;16.00;14.00;;;;;15.94;45.42;100310.44;6186279;28;100077;-68
2021/11/09 15:33:49;;;;;;;;;15.80;13.00;;;;;15.79;45.84;100314.53;6201792;28;97564;-65
2021/11/09 15:36:58;;;;;;;;;14.00;12.40;;;;;15.65;46.13;100315.69;6212761;28;97073;-67
2021/11/09 15:40:02;;;;;;;;;14.40;14.00;;;;;15.54;46.39;100319.97;6194801;28;96709;-66
2021/11/09 15:43:07;;;;;;;;;14.25;13.00;;;;;15.35;46.41;100308.09;6206767;28;96453;-68
2021/11/09 15:46:11;;;;;;;;;15.00;13.00;;;;;15.37;46.68;100327.75;6175816;28;97074;-65
2021/11/09 15:49:16;;;;;;;;;16.00;14.00;;;;;15.24;46.91;100319.69;6191899;28;98177;-68
2021/11/09 15:52:19;;;;;;;;;17.00;14.75;;;;;15.14;47.09;100317.44;6207269;28;96840;-65
2021/11/09 15:55:27;;;;;;;;;14.25;13.25;;;;;15.04;47.27;100318.94;6192976;28;96654;-65
2021/11/09 15:58:30;;;;;;;;;15.00;13.80;;;;;14.95;47.53;100312.09;6206225;28;98290;-67
2021/11/09 16:01:34;;;;;;;;;15.40;13.60;;;;;14.83;47.96;100324.66;6193865;28;98433;-65
2021/11/09 16:04:41;;;;;;;;;15.75;13.75;;;;;14.73;48.16;100320.53;6197337;28;97080;-66
2021/11/09 16:07:45;;;;;;;;;16.00;13.60;;;;;14.66;48.10;100322.41;6185651;28;99862;-67
2021/11/09 16:10:51;;;;;;;;;16.60;15.00;;;;;14.58;48.26;100329.97;6201272;28;96602;-67
2021/11/09 16:13:54;;;;;;;;;16.00;13.80;;;;;14.49;47.87;100320.38;6191124;28;97106;-65
2021/11/09 16:17:01;;;;;;;;;16.60;15.60;;;;;14.38;48.18;100323.72;6199468;28;96980;-64
2021/11/09 16:20:08;;;;;;;;;18.25;16.00;;;;;14.30;48.47;100338.34;6212825;28;96671;-65
2021/11/09 16:23:12;;;;;;;;;19.60;17.60;;;;;14.29;49.04;100336.66;6213866;28;96761;-65
2021/11/09 16:26:15;;;;;;;;;18.40;16.80;;;;;14.24;49.07;100341.88;6210118;28;98199;-66
2021/11/09 16:29:25;;;;;;;;;20.00;19.00;;;;;14.17;49.03;100344.59;6190939;28;96885;-67
2021/11/09 16:32:31;;;;;;;;;22.50;20.00;;;;;14.13;49.52;100346.06;6181423;28;98926;-67
2021/11/09 16:35:38;;;;;;;;;23.00;20.00;;;;;14.10;49.40;100341.06;6198239;28;96668;-66
2021/11/09 16:38:45;;;;;;;;;23.00;21.00;;;;;14.07;49.41;100348.78;6185854;28;97575;-65
2021/11/09 16:41:49;;;;;;;;;26.00;23.00;;;;;14.01;49.88;100350.47;6208217;28;96718;-65
2021/11/09 16:44:53;;;;;;;;;26.00;23.25;;;;;13.98;49.81;100347.31;6187629;28;99628;-65
2021/11/09 16:47:59;;;;;;;;;26.00;24.00;;;;;13.98;50.18;100356.28;6182508;28;97449;-65
2021/11/09 16:51:13;;;;;;;;;26.00;22.25;;;;;13.95;50.23;100361.28;6191994;28;97417;-65
2021/11/09 16:54:24;;;;;;;;;27.00;24.00;;;;;13.93;49.95;100366.91;6206510;28;97541;-67
2021/11/09 16:57:41;;;;;;;;;27.75;25.75;;;;;13.88;49.94;100367.53;6204748;28;97387;-66
2021/11/09 17:00:51;;;;;;;;;27.00;25.00;;;;;13.83;50.36;100371.91;6202882;28;96458;-65
2021/11/09 17:04:13;;;;;;;;;28.00;25.00;;;;;13.75;50.35;100369.41;6184656;28;99706;-67
2021/11/09 18:16:13;;;;;;;;;37.80;31.20;;;;;12.59;51.76;100421.78;6213285;28;97875;-65
2021/11/09 18:22:47;;;;;;;;;34.60;31.40;;;;;12.50;51.26;100409.44;6217977;28;97234;-66
2021/11/09 18:25:50;;;;;;;;;38.20;31.20;;;;;12.44;50.87;100416.47;6213213;28;97555;-65
2021/11/09 18:28:53;;;;;;;;;36.60;32.00;;;;;12.40;50.61;100428.72;6226480;28;96599;-65
2021/11/09 18:31:57;;;;;;;;;40.00;33.40;;;;;12.36;50.79;100435.56;6206789;28;97612;-66
2021/11/09 18:35:02;;;;;;;;;39.60;32.20;;;;;12.32;50.68;100434.25;6232268;28;97664;-66
2021/11/09 18:38:05;;;;;;;;;36.00;31.00;;;;;12.27;50.59;100439.41;6227542;28;97949;-65
2021/11/09 18:41:09;;;;;;;;;36.75;32.00;;;;;12.24;50.71;100437.09;6233619;28;97613;-66
2021/11/09 18:44:13;;;;;;;;;40.00;33.00;;;;;12.17;50.70;100435.41;6207620;28;97024;-65
2021/11/09 18:47:16;;;;;;;;;35.40;30.40;;;;;12.13;50.77;100429.50;6225639;28;96810;-66
2021/11/09 18:50:24;;;;;;;;;42.20;35.00;;;;;12.08;50.56;100430.09;6212650;28;96763;-66
2021/11/09 18:53:28;;;;;;;;;41.40;34.00;;;;;12.04;51.36;100434.22;6225559;28;96912;-65
2021/11/09 18:56:32;;;;;;;;;41.25;33.50;;;;;12.03;50.81;100437.13;6228348;28;97196;-65
2021/11/09 18:59:36;;;;;;;;;38.00;32.00;;;;;11.95;50.59;100424.56;6224958;28;97192;-65
2021/11/09 19:02:40;;;;;;;;;47.00;36.00;;;;;11.98;52.12;100432.28;6203263;28;98932;-65
2021/11/09 19:05:45;;;;;;;;;41.40;34.40;;;;;12.02;52.08;100427.34;6192019;28;98798;-66
2021/11/09 19:08:48;;;;;;;;;42.40;35.00;;;;;12.01;52.44;100440.03;6190570;28;97998;-66
2021/11/09 19:11:53;;;;;;;;;42.00;35.60;;;;;12.08;52.87;100431.97;6200979;28;96853;-67
2021/11/09 19:14:59;;;;;;;;;43.00;35.00;;;;;12.09;52.28;100444.47;6213445;28;97504;-66
2021/11/09 19:18:02;;;;;;;;;43.00;35.50;;;;;12.09;52.19;100442.59;6229541;28;97549;-66
2021/11/09 19:21:07;;;;;;;;;43.60;35.60;;;;;12.12;52.69;100450.31;6215237;28;97351;-66
2021/11/09 19:24:10;;;;;;;;;45.00;36.00;;;;;12.10;51.62;100443.44;6207323;28;98217;-66
2021/11/09 19:27:14;;;;;;;;;45.00;35.60;;;;;12.08;52.29;100450.88;6195281;28;96595;-64
2021/11/09 19:30:22;;;;;;;;;45.00;35.80;;;;;12.06;51.51;100452.97;6191358;28;97270;-66
2021/11/09 19:33:26;;;;;;;;;41.40;33.00;;;;;11.98;53.15;100456.63;6186295;28;97199;-64
2021/11/09 19:36:30;;;;;;;;;46.50;35.00;;;;;11.88;53.40;100458.78;6212612;28;97161;-66
2021/11/09 19:39:35;;;;;;;;;44.40;33.40;;;;;11.91;52.83;100460.28;6203742;28;96755;-67
2021/11/09 19:42:42;;;;;;;;;40.00;34.00;;;;;11.92;51.93;100462.81;6213315;28;96639;-66
2021/11/09 19:45:46;;;;;;;;;38.50;32.75;;;;;11.71;52.26;100435.72;6210280;28;97757;-64
2021/11/09 19:48:55;;;;;;;;;40.50;32.50;;;;;11.87;52.35;100470.66;6225202;28;97395;-66
2021/11/09 19:51:59;;;;;;;;;37.60;32.00;;;;;11.84;52.15;100468.31;6218254;28;96789;-66
2021/11/09 19:55:05;;;;;;;;;39.60;33.00;;;;;11.86;51.92;100471.69;6224262;28;97055;-65
2021/11/09 19:58:11;;;;;;;;;42.00;35.00;;;;;11.70;51.87;100456.50;6224018;28;97451;-67
2021/11/09 20:01:17;;;;;;;;;42.00;33.75;;;;;11.81;52.13;100481.38;6229796;28;97160;-66
2021/11/09 20:04:20;;;;;;;;;41.75;33.00;;;;;11.79;51.88;100478.88;6203074;28;98431;-67
2021/11/09 20:07:26;;;;;;;;;39.00;32.60;;;;;11.77;51.47;100478.25;6231117;28;97538;-67
2021/11/09 20:10:30;;;;;;;;;41.80;33.80;;;;;11.76;51.25;100475.72;6199056;28;98311;-66
2021/11/09 20:13:33;;;;;;;;;45.00;34.00;;;;;11.70;51.44;100478.13;6223527;28;97850;-67
2021/11/09 20:16:37;;;;;;;;;40.00;34.00;;;;;11.69;51.38;100481.84;6226722;28;96936;-67
2021/11/09 20:19:50;;;;;;;;;39.20;30.80;;;;;11.68;50.88;100482.03;6229882;28;96682;-66
2021/11/09 20:22:55;;;;;;;;;38.80;32.80;;;;;11.60;50.35;100482.97;6194853;28;98602;-66
2021/11/09 20:25:59;;;;;;;;;38.20;32.00;;;;;11.55;50.60;100473.78;6225836;28;96566;-64
2021/11/09 20:29:02;;;;;;;;;37.33;32.00;;;;;11.50;50.12;100481.59;6213192;28;98379;-65
2021/11/09 20:32:05;;;;;;;;;36.00;32.00;;;;;11.41;50.13;100475.47;6211074;28;99057;-64
2021/11/09 20:35:10;;;;;;;;;38.20;32.00;;;;;11.35;50.14;100480.78;6206603;28;97493;-64
2021/11/09 20:38:15;;;;;;;;;36.20;31.60;;;;;11.32;50.80;100486.56;6218142;28;96507;-65
2021/11/09 20:41:21;;;;;;;;;40.60;33.00;;;;;11.29;50.98;100477.81;6198753;28;97866;-65
2021/11/09 20:44:24;;;;;;;;;41.00;33.00;;;;;11.24;50.74;100476.69;6199733;28;98561;-66
2021/11/09 20:47:27;;;;;;;;;40.50;33.50;;;;;11.18;50.97;100481.00;6223587;28;96544;-66
2021/11/09 20:50:31;;;;;;;;;42.00;35.20;;;;;11.10;50.96;100481.06;6232566;28;96695;-66
2021/11/09 20:53:36;;;;;;;;;45.40;35.40;;;;;11.08;50.51;100485.00;6224497;28;97379;-66
2021/11/09 20:56:42;;;;;;;;;38.50;33.00;;;;;10.77;50.54;100442.84;6230085;28;96663;-65
2021/11/09 20:59:46;;;;;;;;;41.60;33.00;;;;;10.98;51.07;100479.88;6208065;28;96869;-65
2021/11/09 21:02:49;;;;;;;;;39.00;33.00;;;;;10.95;51.27;100474.84;6225779;28;97250;-65
2021/11/09 21:05:53;;;;;;;;;41.75;34.00;;;;;10.94;51.60;100477.75;6222086;28;97545;-66
2021/11/09 21:09:00;;;;;;;;;39.00;32.00;;;;;10.91;51.52;100472.69;6178148;28;96730;-66
2021/11/09 21:12:07;;;;;;;;;44.00;35.00;;;;;10.89;51.34;100470.19;6217297;28;96697;-65
2021/11/09 21:18:32;;;;;;;;;44.60;34.60;;;;;10.78;50.59;100466.09;6188253;28;98670;-65
2021/11/09 21:21:35;;;;;;;;;42.40;34.00;;;;;10.72;50.49;100471.38;6197744;28;97415;-66
2021/11/09 21:24:40;;;;;;;;;39.80;34.20;;;;;10.65;51.00;100478.56;6199601;28;99588;-66
2021/11/09 21:27:43;;;;;;;;;41.40;34.40;;;;;10.57;51.03;100478.59;6210954;28;97885;-66
2021/11/09 21:31:03;;;;;;;;;42.00;33.20;;;;;10.36;50.69;100452.38;6221406;28;97522;-66